Time;durP1;ratioP1;P1;durP2;ratioP2;P2;SDS_P1;SDS_P2;PMS_P1;PMS_P2;Temp;Humidity;BMP_temperature;BMP_pressure;BME280_temperature;BME280_humidity;BME280_pressure;Samples;Min_cycle;Max_cycle;Signal;HPM_P1;HPM_P2
2024/04/09 00:02:04;;;;;;;7.50;5.30;;;17.60;99.90;;;-141.84;58.29;20143.09;5450579;26;20261;-66
2024/04/09 00:04:36;;;;;;;10.07;5.50;;;17.60;99.90;;;-141.84;58.23;20134.97;5450813;26;20265;-66
2024/04/09 00:07:08;;;;;;;13.90;5.70;;;17.60;99.90;;;-141.84;58.24;20155.28;5450465;26;20644;-67
2024/04/09 00:09:42;;;;;;;8.38;5.60;;;17.60;99.90;;;-141.84;58.23;20130.91;5450011;26;20300;-68
2024/04/09 00:12:11;;;;;;;11.48;5.65;;;17.60;99.90;;;-141.84;58.58;20120.75;5449774;26;20265;-67
2024/04/09 00:14:47;;;;;;;10.20;5.18;;;17.60;99.90;;;-141.84;58.76;20137.00;5450200;26;20651;-67
2024/04/09 00:17:19;;;;;;;13.18;5.80;;;17.60;99.90;;;-141.84;58.48;20114.63;5435305;26;20261;-67
2024/04/09 00:19:50;;;;;;;10.45;5.70;;;17.50;99.90;;;-141.84;57.68;20110.56;5450426;26;20280;-66
2024/04/09 00:22:23;;;;;;;11.05;6.15;;;17.50;99.90;;;-141.84;57.99;20108.53;5449447;26;20245;-65
2024/04/09 00:24:53;;;;;;;12.88;5.78;;;17.60;99.90;;;-141.84;57.43;20134.97;5450084;26;20250;-65
2024/04/09 00:27:20;;;;;;;10.52;5.78;;;17.60;99.90;;;-141.84;57.36;20126.84;5449908;26;20249;-67
2024/04/09 00:29:51;;;;;;;12.52;5.60;;;17.60;99.90;;;-141.84;57.90;20124.81;5450041;26;20658;-67
2024/04/09 00:32:19;;;;;;;11.85;5.55;;;17.60;99.90;;;-141.84;57.93;20118.69;5449323;26;20768;-67
2024/04/09 00:34:49;;;;;;;12.85;6.03;;;17.60;99.90;;;-141.84;58.18;20100.41;5450164;26;20230;-67
2024/04/09 00:37:20;;;;;;;9.10;5.35;;;17.60;99.90;;;-141.84;58.50;20094.31;5435741;26;20288;-67
2024/04/09 00:39:50;;;;;;;11.27;5.28;;;17.50;99.90;;;-141.84;59.08;20084.16;5449694;26;20261;-66
2024/04/09 00:42:18;;;;;;;11.27;5.68;;;17.50;99.90;;;-141.84;59.27;20090.25;5449793;26;20760;-66
2024/04/09 00:44:49;;;;;;;10.15;5.53;;;17.40;99.90;;;-141.84;59.12;20078.06;5450681;26;20595;-66
2024/04/09 00:47:18;;;;;;;9.35;5.20;;;17.40;99.90;;;-141.84;58.88;20051.63;5445224;26;20234;-67
2024/04/09 00:49:49;;;;;;;13.43;6.30;;;17.40;99.90;;;-141.84;59.37;20080.09;5451097;26;20289;-65
2024/04/09 00:52:21;;;;;;;12.40;6.15;;;17.30;99.90;;;-141.84;59.69;20051.63;5449476;26;20257;-66
2024/04/09 00:54:53;;;;;;;13.15;6.20;;;17.30;99.90;;;-141.84;60.12;20071.97;5449476;26;20663;-66
2024/04/09 00:57:22;;;;;;;9.25;5.32;;;17.30;99.90;;;-141.84;60.68;20076.03;5449532;26;20250;-66
2024/04/09 00:59:55;;;;;;;11.23;5.72;;;17.30;99.90;;;-141.84;61.07;20094.31;5449504;26;20280;-65
2024/04/09 01:02:23;;;;;;;10.93;6.03;;;17.20;99.90;;;-141.84;61.84;20057.72;5449193;26;20707;-65
2024/04/09 01:04:56;;;;;;;7.95;5.78;;;17.20;99.90;;;-141.84;62.04;20055.69;5450928;26;20268;-66
2024/04/09 01:07:27;;;;;;;9.95;5.65;;;17.10;99.90;;;-141.84;61.92;20078.06;5450172;26;20735;-67
2024/04/09 01:09:57;;;;;;;10.75;5.90;;;17.10;99.90;;;-141.84;62.21;20061.78;5436243;26;20292;-66
2024/04/09 01:12:25;;;;;;;13.85;6.05;;;17.00;99.90;;;-141.84;61.91;20033.34;5448925;26;20288;-66
2024/04/09 01:14:56;;;;;;;10.93;5.93;;;17.00;99.90;;;-141.84;62.35;20055.69;5450061;26;20363;-65
2024/04/09 01:17:24;;;;;;;11.75;6.55;;;17.00;99.90;;;-141.84;62.34;20063.81;5450209;26;20425;-66
2024/04/09 01:19:56;;;;;;;11.98;5.63;;;17.00;99.90;;;-141.84;62.53;20055.69;5449422;26;20744;-69
2024/04/09 01:22:30;;;;;;;12.13;6.43;;;16.90;99.90;;;-141.84;62.55;20043.50;5449750;26;20334;-68
2024/04/09 01:25:02;;;;;;;12.30;5.75;;;16.90;99.90;;;-141.84;63.07;20043.50;5449522;26;20250;-68
2024/04/09 01:27:31;;;;;;;9.65;5.80;;;16.90;99.90;;;-141.84;62.84;20029.28;5448658;26;20265;-67
2024/04/09 01:30:05;;;;;;;9.77;6.30;;;16.90;99.90;;;-141.84;63.03;20043.50;5449196;26;20748;-67
2024/04/09 01:32:33;;;;;;;10.80;5.75;;;16.80;99.90;;;-141.84;62.98;20065.84;5449180;26;20241;-67
2024/04/09 01:35:06;;;;;;;10.27;5.72;;;16.90;99.90;;;-141.84;63.17;20051.63;5448728;26;20388;-65
2024/04/09 01:37:37;;;;;;;8.85;5.88;;;16.90;99.90;;;-141.84;62.86;20045.53;5449673;26;20277;-66
2024/04/09 01:40:08;;;;;;;9.80;6.43;;;16.80;99.90;;;-141.84;63.43;20027.25;5448278;26;20250;-66
2024/04/09 01:42:38;;;;;;;10.35;6.28;;;16.80;99.90;;;-141.84;63.70;20035.38;5443504;26;20762;-66
2024/04/09 01:45:09;;;;;;;10.07;5.75;;;16.80;99.90;;;-141.84;64.15;20061.78;5442419;26;20250;-68
2024/04/09 01:47:37;;;;;;;8.05;5.63;;;16.80;99.90;;;-141.84;64.92;20096.34;5449168;26;20318;-66
2024/04/09 01:50:10;;;;;;;9.98;6.05;;;16.70;99.90;;;-141.84;65.28;20078.06;5448320;26;20278;-67
2024/04/09 01:52:42;;;;;;;10.55;6.70;;;16.70;99.90;;;-141.84;65.78;20078.06;5449394;26;20773;-67
2024/04/09 01:55:13;;;;;;;8.52;6.00;;;16.60;99.90;;;-141.84;66.05;20130.91;5431547;26;20292;-67
2024/04/09 01:57:41;;;;;;;8.75;6.35;;;16.60;99.90;;;-141.84;66.54;20126.84;5448359;26;20386;-67
2024/04/09 02:00:19;;;;;;;9.82;6.20;;;16.60;99.90;;;-141.84;66.37;20122.78;5448413;26;20354;-67
2024/04/09 02:02:52;;;;;;;11.10;6.50;;;16.60;99.90;;;-141.84;65.93;20074.00;5449903;26;20358;-67
2024/04/09 02:05:23;;;;;;;9.25;6.40;;;16.60;99.90;;;-141.84;65.91;20084.16;5448099;26;20679;-67
2024/04/09 02:07:55;;;;;;;8.65;6.10;;;16.60;99.90;;;-141.84;65.67;20100.41;5448804;26;20309;-67
2024/04/09 02:10:25;;;;;;;10.38;6.00;;;16.50;99.90;;;-141.84;65.80;20071.97;5448247;26;20253;-68
2024/04/09 02:12:56;;;;;;;7.65;5.82;;;16.60;99.90;;;-141.84;66.15;20098.38;5448225;26;20330;-66
2024/04/09 02:15:26;;;;;;;10.20;6.25;;;16.60;99.90;;;-141.84;65.42;20098.38;5448244;26;20280;-66
2024/04/09 02:17:54;;;;;;;9.85;6.47;;;16.60;99.90;;;-141.84;65.70;20067.88;5448058;26;20253;-65
2024/04/09 02:20:26;;;;;;;8.00;6.43;;;16.70;99.90;;;-141.84;65.62;20049.59;5447927;26;20305;-66
2024/04/09 02:22:56;;;;;;;9.07;6.93;;;16.60;99.90;;;-141.84;65.34;20043.50;5449032;26;20234;-67
2024/04/09 02:25:26;;;;;;;11.05;6.38;;;16.70;99.90;;;-141.84;65.58;20049.59;5451528;26;20663;-67
2024/04/09 02:27:54;;;;;;;7.95;6.18;;;16.70;99.90;;;-141.84;65.86;20080.09;5451511;26;20253;-67
2024/04/09 02:30:24;;;;;;;9.23;6.47;;;16.60;99.90;;;-141.84;65.94;20047.56;5451910;26;20254;-67
2024/04/09 02:32:53;;;;;;;9.48;6.30;;;16.60;99.90;;;-141.84;66.22;20084.16;5451453;26;20365;-67
2024/04/09 02:35:24;;;;;;;9.20;6.35;;;16.70;99.90;;;-141.84;66.48;20100.41;5451252;26;20292;-66
2024/04/09 02:37:52;;;;;;;9.30;6.57;;;16.60;99.90;;;-141.84;66.75;20155.28;5451856;26;20293;-66
2024/04/09 02:40:25;;;;;;;8.35;6.63;;;16.60;99.90;;;-141.84;66.84;20118.69;5441310;26;20261;-65
2024/04/09 02:42:56;;;;;;;10.93;6.38;;;16.60;99.90;;;-141.84;66.84;20128.88;5450936;26;20249;-68
2024/04/09 02:45:26;;;;;;;8.70;6.47;;;16.60;99.90;;;-141.84;67.47;20191.88;5451206;26;20398;-67
2024/04/09 02:47:53;;;;;;;10.57;6.88;;;16.60;99.90;;;-141.84;68.24;20297.56;5451643;26;20250;-68
2024/04/09 02:50:24;;;;;;;7.47;6.60;;;16.60;99.90;;;-141.84;68.79;20299.59;5451214;26;20250;-66
2024/04/09 02:52:53;;;;;;;10.63;7.22;;;16.50;99.90;;;-141.84;68.47;20275.22;5451653;26;20737;-67
2024/04/09 02:55:26;;;;;;;11.60;6.78;;;16.50;99.90;;;-141.84;67.92;20232.53;5451000;26;20357;-67
2024/04/09 02:57:54;;;;;;;8.13;6.72;;;16.50;99.90;;;-141.84;67.57;20179.69;5451213;26;20245;-67
2024/04/09 03:00:24;;;;;;;9.95;6.80;;;16.60;99.90;;;-141.84;67.73;20195.94;5451051;26;20305;-66
2024/04/09 03:02:55;;;;;;;7.13;6.50;;;16.60;99.90;;;-141.84;68.00;20187.81;5450942;26;20304;-66
2024/04/09 03:05:34;;;;;;;7.32;6.38;;;16.60;99.90;;;-141.84;68.04;20220.34;5449769;26;20587;-66
2024/04/09 03:08:01;;;;;;;9.02;6.57;;;16.70;99.90;;;-141.84;67.74;20189.84;5451045;26;20604;-66
2024/04/09 03:10:37;;;;;;;9.18;6.50;;;16.70;99.90;;;-141.84;67.35;20151.22;5450771;26;20590;-66
2024/04/09 03:13:05;;;;;;;7.03;6.32;;;16.80;99.90;;;-141.84;67.56;20175.63;5450771;26;20725;-66
2024/04/09 03:15:37;;;;;;;7.53;6.40;;;16.80;99.90;;;-141.84;66.96;20159.34;5450438;26;20284;-67
2024/04/09 03:18:05;;;;;;;7.38;6.57;;;16.80;99.90;;;-141.84;67.17;20153.25;5450404;26;20253;-67
2024/04/09 03:20:36;;;;;;;9.77;6.95;;;16.80;99.90;;;-141.84;66.72;20141.06;5450807;26;20358;-66
2024/04/09 03:23:03;;;;;;;8.60;7.10;;;16.90;99.90;;;-141.84;66.38;20108.53;5450721;26;20230;-66
2024/04/09 03:25:35;;;;;;;7.22;6.50;;;16.90;99.90;;;-141.84;66.51;20094.31;5436504;26;20744;-66
2024/04/09 03:28:05;;;;;;;9.65;7.40;;;16.90;99.90;;;-141.84;66.23;20134.97;5450554;26;20245;-66
2024/04/09 03:30:36;;;;;;;10.20;7.00;;;17.00;99.90;;;-141.84;65.05;20041.47;5449961;26;20709;-66
2024/04/09 03:33:04;;;;;;;9.40;7.00;;;17.00;99.90;;;-141.84;66.05;20090.25;5450825;26;20305;-68
2024/04/09 03:35:34;;;;;;;8.90;6.82;;;17.00;99.90;;;-141.84;65.82;20084.16;5437825;26;20288;-66
2024/04/09 03:38:04;;;;;;;8.90;6.85;;;17.10;99.90;;;-141.84;66.42;20130.91;5450135;26;20222;-66
2024/04/09 03:40:35;;;;;;;7.53;6.80;;;17.00;99.90;;;-141.84;66.35;20130.91;5450432;26;20237;-66
2024/04/09 03:43:08;;;;;;;8.32;7.13;;;17.00;99.90;;;-141.84;66.44;20112.59;5450266;26;20250;-67
2024/04/09 03:45:36;;;;;;;8.32;6.72;;;17.10;99.90;;;-141.84;66.17;20069.94;5436478;26;20250;-67
2024/04/09 03:48:07;;;;;;;9.00;6.95;;;17.00;99.90;;;-141.84;66.32;20128.88;5449987;26;20250;-67
2024/04/09 03:50:36;;;;;;;8.25;7.05;;;17.00;99.90;;;-141.84;66.52;20145.13;5449871;26;20254;-67
2024/04/09 03:53:06;;;;;;;7.15;6.50;;;17.00;99.90;;;-141.84;66.40;20118.69;5449606;26;20574;-66
2024/04/09 03:55:36;;;;;;;7.40;6.43;;;17.00;99.90;;;-141.84;66.70;20086.19;5449132;26;20629;-67
2024/04/09 03:58:11;;;;;;;7.57;6.93;;;17.10;99.90;;;-141.84;66.19;20094.31;5449483;26;20304;-67
2024/04/09 04:00:38;;;;;;;7.05;6.35;;;17.10;99.90;;;-141.84;66.68;20126.84;5449177;26;20246;-67
2024/04/09 04:03:08;;;;;;;6.90;6.20;;;17.10;99.90;;;-141.84;66.67;20126.84;5448866;26;20258;-67
2024/04/09 04:05:39;;;;;;;6.90;6.22;;;17.10;99.90;;;-141.84;66.63;20139.03;5449178;26;20288;-67
2024/04/09 04:08:09;;;;;;;8.48;6.72;;;17.10;99.90;;;-141.84;66.30;20147.16;5449664;26;20230;-67
2024/04/09 04:10:37;;;;;;;10.07;7.18;;;17.10;99.90;;;-141.84;66.20;20137.00;5449789;26;20229;-67
2024/04/09 04:13:09;;;;;;;8.68;7.10;;;17.20;99.90;;;-141.84;65.59;20102.44;5450902;26;20284;-67
2024/04/09 04:15:37;;;;;;;11.02;6.78;;;17.20;99.90;;;-141.84;66.17;20086.19;5448645;26;20253;-65
2024/04/09 04:18:11;;;;;;;7.43;6.65;;;17.20;99.90;;;-141.84;65.80;20100.41;5435019;26;20266;-67
2024/04/09 04:20:39;;;;;;;8.63;7.15;;;17.20;99.90;;;-141.84;65.57;20094.31;5448576;26;20354;-67
2024/04/09 04:23:09;;;;;;;7.00;6.40;;;17.20;99.90;;;-141.84;65.16;20086.19;5448531;26;20878;-67
2024/04/09 04:25:37;;;;;;;7.95;6.40;;;17.30;99.90;;;-141.84;65.32;20084.16;5449220;26;20226;-67
2024/04/09 04:28:10;;;;;;;8.65;6.82;;;17.30;99.90;;;-141.84;65.37;20090.25;5448826;26;20253;-67
2024/04/09 04:30:37;;;;;;;9.80;6.53;;;17.30;99.90;;;-141.84;65.81;20071.97;5448302;26;20663;-66
2024/04/09 04:33:08;;;;;;;7.47;6.47;;;17.30;99.90;;;-141.84;65.86;20141.06;5449107;26;20671;-66
2024/04/09 04:35:36;;;;;;;8.48;6.80;;;17.30;99.90;;;-141.84;65.91;20098.38;5453470;26;20288;-67
2024/04/09 04:38:06;;;;;;;9.07;7.07;;;17.30;99.90;;;-141.84;65.34;20080.09;5448454;26;20234;-66
2024/04/09 04:40:33;;;;;;;9.23;7.13;;;17.30;99.90;;;-141.84;65.79;20074.00;5449044;26;20290;-67
2024/04/09 04:43:03;;;;;;;7.78;6.97;;;17.30;99.90;;;-141.84;65.86;20098.38;5448231;26;20253;-67
2024/04/09 04:45:33;;;;;;;7.55;6.85;;;17.30;99.90;;;-141.84;66.11;20143.09;5447995;26;20277;-68
2024/04/09 04:48:04;;;;;;;7.18;6.47;;;17.30;99.90;;;-141.84;66.54;20132.94;5451365;26;20250;-68
2024/04/09 04:50:32;;;;;;;8.93;6.75;;;17.20;99.90;;;-141.84;66.63;20130.91;5449414;26;20737;-66
2024/04/09 04:53:02;;;;;;;7.07;6.45;;;17.20;99.90;;;-141.84;66.52;20134.97;5450025;26;20268;-67
2024/04/09 04:55:29;;;;;;;10.35;6.75;;;17.30;99.90;;;-141.84;66.12;20139.03;5451960;26;20576;-67
2024/04/09 04:57:59;;;;;;;7.35;6.70;;;17.30;99.90;;;-141.84;66.02;20112.59;5450184;26;20246;-67
2024/04/09 05:00:27;;;;;;;7.57;6.63;;;17.40;99.90;;;-141.84;65.77;20108.53;5450994;26;20246;-68
2024/04/09 05:03:00;;;;;;;7.78;6.00;;;17.40;99.90;;;-141.84;65.25;20092.28;5448459;26;20246;-67
2024/04/09 05:05:29;;;;;;;11.05;6.32;;;17.50;99.90;;;-141.84;64.52;20063.81;5434260;26;20377;-67
2024/04/09 05:08:00;;;;;;;7.55;6.30;;;17.50;99.90;;;-141.84;64.32;20078.06;5448544;26;20226;-66
2024/04/09 05:10:27;;;;;;;11.27;6.82;;;17.60;99.90;;;-141.84;64.28;20061.78;5447757;26;20238;-66
2024/04/09 05:12:58;;;;;;;6.57;5.88;;;17.60;99.90;;;-141.84;64.25;20069.94;5419160;26;20254;-68
2024/04/09 05:15:26;;;;;;;6.68;5.97;;;17.70;99.90;;;-141.84;64.01;20051.63;5425435;26;20619;-66
2024/04/09 05:18:02;;;;;;;9.82;6.30;;;17.80;99.90;;;-141.84;63.55;20053.66;5422872;26;20369;-67
2024/04/09 05:20:30;;;;;;;7.32;5.90;;;17.80;99.90;;;-141.84;63.07;20071.97;5431447;26;20251;-67
2024/04/09 05:23:02;;;;;;;8.18;5.78;;;18.00;99.90;;;-141.84;63.10;20065.84;5412416;26;20226;-67
2024/04/09 05:25:32;;;;;;;7.60;5.70;;;18.00;99.90;;;-141.84;62.32;20045.53;5407409;26;20336;-67
2024/04/09 05:28:02;;;;;;;6.07;5.50;;;18.10;99.90;;;-141.84;62.43;20063.81;5441238;26;20300;-66
2024/04/09 05:30:30;;;;;;;7.57;5.20;;;18.30;99.90;;;-141.84;62.24;20067.88;5447559;26;20288;-66
2024/04/09 05:33:03;;;;;;;6.88;6.18;;;18.20;99.90;;;-141.84;62.01;20059.75;5439886;26;20246;-67
2024/04/09 05:35:30;;;;;;;5.97;5.38;;;18.30;99.90;;;-141.84;61.56;20071.97;5441741;26;20292;-67
2024/04/09 05:38:02;;;;;;;7.75;5.97;;;18.30;99.90;;;-141.84;61.36;20059.75;5427483;26;20234;-66
2024/04/09 05:40:30;;;;;;;9.00;6.35;;;18.40;99.90;;;-141.84;60.20;20061.78;5401152;26;20718;-67
2024/04/09 05:43:00;;;;;;;7.22;5.90;;;18.50;99.90;;;-141.84;60.61;20084.16;5399998;26;20252;-67
2024/04/09 05:45:27;;;;;;;7.60;5.50;;;18.50;99.90;;;-141.84;60.54;20090.25;5400685;26;20250;-67
2024/04/09 05:47:57;;;;;;;6.28;5.45;;;18.50;99.90;;;-141.84;61.35;20053.66;5399880;26;20285;-67
2024/04/09 05:50:29;;;;;;;8.32;6.00;;;18.50;99.90;;;-141.84;61.29;20059.75;5406101;26;20263;-67
2024/04/09 05:52:59;;;;;;;9.48;6.25;;;18.50;99.90;;;-141.84;61.04;20041.47;5413484;26;20321;-68
2024/04/09 05:55:27;;;;;;;8.20;5.82;;;18.50;99.90;;;-141.84;60.76;20041.47;5449935;26;20264;-66
2024/04/09 05:57:59;;;;;;;10.02;5.97;;;18.50;99.90;;;-141.84;61.13;20061.78;5448931;26;20253;-66
2024/04/09 06:00:26;;;;;;;6.80;6.07;;;18.50;99.90;;;-141.84;61.25;20080.09;5451523;26;20617;-66
2024/04/09 06:02:57;;;;;;;8.55;5.60;;;18.50;99.90;;;-141.84;60.44;20090.25;5450911;26;20304;-59
2024/04/09 06:05:27;;;;;;;7.90;5.80;;;18.50;99.90;;;-141.84;60.19;20102.44;5436241;26;20775;-58
2024/04/09 06:07:59;;;;;;;9.13;5.78;;;18.60;99.90;;;-141.84;60.44;20114.63;5451549;26;20330;-59
2024/04/09 06:10:26;;;;;;;8.70;5.35;;;18.70;99.90;;;-141.84;60.30;20084.16;5450889;26;20233;-58
2024/04/09 06:12:56;;;;;;;7.88;5.30;;;18.70;99.90;;;-141.84;59.62;20126.84;5450825;26;20253;-59
2024/04/09 06:15:24;;;;;;;7.97;5.85;;;18.80;99.90;;;-141.84;58.83;20116.66;5451145;26;20249;-59
2024/04/09 06:17:56;;;;;;;9.05;5.45;;;19.00;99.90;;;-141.84;58.44;20130.91;5448792;26;20339;-59
2024/04/09 06:20:23;;;;;;;9.30;5.50;;;19.10;99.90;;;-141.84;57.77;20139.03;5449361;26;20257;-59
2024/04/09 06:22:56;;;;;;;5.85;5.18;;;19.20;99.90;;;-141.84;57.69;20151.22;5450784;26;20257;-59
2024/04/09 06:25:23;;;;;;;9.13;5.78;;;19.40;99.90;;;-141.84;58.07;20183.75;5439910;26;20371;-59
2024/04/09 06:27:53;;;;;;;8.88;4.97;;;19.50;99.90;;;-141.84;58.52;20185.78;5441233;26;20280;-59
2024/04/09 06:30:21;;;;;;;8.73;5.40;;;19.60;99.90;;;-141.84;57.82;20195.94;5450082;26;20597;-60
2024/04/09 06:32:51;;;;;;;10.05;5.22;;;19.70;99.90;;;-141.84;57.29;20204.06;5450877;26;20250;-59
2024/04/09 06:35:18;;;;;;;6.15;4.80;;;19.80;99.90;;;-141.84;56.88;20204.06;5450707;26;20944;-61
2024/04/09 06:37:48;;;;;;;5.75;4.90;;;19.90;99.90;;;-141.84;56.56;20228.47;5449972;26;20222;-58
2024/04/09 06:40:19;;;;;;;5.32;4.82;;;20.00;99.90;;;-141.84;56.11;20283.34;5450289;26;20257;-59
2024/04/09 06:42:49;;;;;;;9.05;5.38;;;20.10;99.90;;;-141.84;55.64;20269.13;5450911;26;20261;-60
2024/04/09 06:45:18;;;;;;;4.85;4.32;;;20.30;99.90;;;-141.84;55.16;20289.44;5449717;26;20714;-60
2024/04/09 06:47:48;;;;;;;9.15;5.63;;;20.40;99.90;;;-141.84;53.70;20332.13;5450556;26;20261;-60
2024/04/09 06:50:16;;;;;;;6.18;4.43;;;20.50;99.90;;;-141.84;53.44;20340.25;5450396;26;20226;-59
2024/04/09 06:52:47;;;;;;;6.05;4.93;;;20.60;99.90;;;-141.84;52.38;20368.72;5436474;26;20327;-60
2024/04/09 06:55:19;;;;;;;5.13;4.50;;;20.70;99.90;;;-141.84;52.44;20330.09;5442302;26;20254;-59
2024/04/09 06:57:49;;;;;;;8.13;4.65;;;20.80;99.90;;;-141.84;52.35;20358.56;5449870;26;20249;-59
2024/04/09 07:00:17;;;;;;;7.45;5.70;;;20.90;99.90;;;-141.84;52.04;20378.88;5450513;26;20249;-60
2024/04/09 07:02:47;;;;;;;5.47;4.57;;;20.90;99.90;;;-141.84;51.28;20411.41;5450006;26;20249;-59
2024/04/09 07:05:16;;;;;;;5.38;4.60;;;21.00;99.90;;;-141.84;51.05;20409.38;5449936;26;20253;-60
2024/04/09 07:07:46;;;;;;;7.18;5.30;;;21.00;99.90;;;-141.84;50.46;20474.41;5450634;26;20238;-59
2024/04/09 07:10:13;;;;;;;6.97;4.85;;;21.20;99.90;;;-141.84;49.04;20482.53;5449184;26;20828;-59
2024/04/09 07:12:47;;;;;;;7.03;4.93;;;21.30;99.90;;;-141.84;49.04;20502.88;5422548;26;20742;-59
2024/04/09 07:15:15;;;;;;;8.27;4.82;;;21.30;99.90;;;-141.84;49.11;20496.78;5426333;26;20573;-58
2024/04/09 07:17:45;;;;;;;7.40;4.93;;;21.40;99.90;;;-141.84;49.31;20506.94;5441599;26;20257;-59
2024/04/09 07:20:16;;;;;;;7.32;4.70;;;21.30;99.90;;;-141.84;49.41;20515.06;5422884;26;20230;-61
2024/04/09 07:22:46;;;;;;;5.35;4.57;;;21.50;99.90;;;-141.84;49.20;20545.56;5399893;26;20266;-58
2024/04/09 07:25:14;;;;;;;7.68;4.75;;;21.50;99.90;;;-141.84;48.92;20559.78;5429540;26;20249;-59
2024/04/09 07:27:46;;;;;;;9.15;4.70;;;21.60;99.90;;;-141.84;48.52;20563.84;5439513;26;20349;-59
2024/04/09 07:30:16;;;;;;;6.97;4.20;;;21.70;99.90;;;-141.84;48.28;20565.88;5449620;26;20292;-59
2024/04/09 07:32:46;;;;;;;10.27;4.57;;;21.70;99.90;;;-141.84;48.09;20574.00;5449743;26;20342;-59
2024/04/09 07:35:19;;;;;;;7.40;4.65;;;21.70;99.90;;;-141.84;47.96;20590.28;5449072;26;20311;-59
2024/04/09 07:37:49;;;;;;;6.65;4.07;;;21.80;99.90;;;-141.84;47.70;20624.84;5450106;26;20226;-58
2024/04/09 07:40:17;;;;;;;9.35;5.07;;;21.80;99.90;;;-141.84;47.77;20596.38;5449445;26;20249;-59
2024/04/09 07:42:49;;;;;;;9.90;4.97;;;21.90;99.90;;;-141.84;47.34;20637.03;5449518;26;20253;-59
2024/04/09 07:45:17;;;;;;;7.78;4.22;;;21.80;99.90;;;-141.84;47.62;20624.84;5435161;26;20744;-59
2024/04/09 07:47:49;;;;;;;4.70;4.20;;;21.90;99.90;;;-141.84;47.33;20624.84;5449403;26;20292;-59
2024/04/09 07:50:17;;;;;;;6.43;4.30;;;22.00;99.90;;;-141.84;46.89;20645.16;5449091;26;20741;-60
2024/04/09 07:52:47;;;;;;;8.80;5.03;;;22.10;99.90;;;-141.84;46.21;20673.63;5449813;26;20268;-59
2024/04/09 07:55:15;;;;;;;8.18;5.22;;;22.20;99.90;;;-141.84;46.39;20700.03;5449141;26;20257;-59
2024/04/09 07:57:45;;;;;;;7.85;4.85;;;22.20;99.90;;;-141.84;46.33;20710.22;5448803;26;20254;-61
2024/04/09 08:00:17;;;;;;;6.18;4.68;;;22.30;99.90;;;-141.84;45.95;20734.59;5449322;26;20246;-59
2024/04/09 08:02:48;;;;;;;9.30;5.20;;;22.40;99.90;;;-141.84;46.07;20728.50;5449139;26;20283;-59
2024/04/09 08:05:16;;;;;;;9.73;5.47;;;22.40;99.90;;;-141.84;45.84;20728.50;5434294;26;21468;-61
2024/04/09 08:07:47;;;;;;;7.25;4.50;;;22.40;99.90;;;-141.84;45.95;20732.56;5449898;26;20268;-60
2024/04/09 08:10:19;;;;;;;7.00;4.45;;;22.30;99.90;;;-141.84;45.94;20734.59;5448905;26;20253;-59
2024/04/09 08:12:52;;;;;;;9.00;4.68;;;22.50;99.90;;;-141.84;45.19;20777.28;5436862;26;20853;-60
2024/04/09 08:15:25;;;;;;;10.05;4.80;;;22.60;99.90;;;-141.84;45.21;20761.03;5449167;26;20253;-59
2024/04/09 08:17:55;;;;;;;10.90;5.38;;;22.70;99.90;;;-141.84;44.54;20797.63;5437848;26;20277;-60
2024/04/09 08:20:22;;;;;;;6.85;4.90;;;22.70;99.90;;;-141.84;44.02;20856.56;5448602;26;20610;-59
2024/04/09 08:22:53;;;;;;;8.23;4.72;;;22.80;99.90;;;-141.84;43.78;20866.75;5449143;26;20272;-60
2024/04/09 08:25:24;;;;;;;8.80;5.25;;;23.00;99.90;;;-141.84;43.82;20878.94;5449028;26;20233;-58
2024/04/09 08:27:55;;;;;;;8.43;5.10;;;23.00;99.90;;;-141.84;43.56;20952.13;5449238;26;20250;-59
2024/04/09 08:30:26;;;;;;;10.13;4.65;;;23.20;99.90;;;-141.84;43.37;20895.19;5448323;26;20579;-59
2024/04/09 08:32:59;;;;;;;9.70;4.97;;;23.20;99.90;;;-141.84;42.55;20948.06;5448803;26;20258;-59
2024/04/09 08:35:27;;;;;;;10.82;5.53;;;23.30;99.90;;;-141.84;42.78;20935.88;5448605;26;20663;-59
2024/04/09 08:37:57;;;;;;;12.40;5.55;;;23.40;99.90;;;-141.84;43.02;20909.44;5449376;26;20308;-59
2024/04/09 08:40:25;;;;;;;8.65;4.65;;;23.40;99.90;;;-141.84;42.78;20960.25;5448623;26;20237;-58
2024/04/09 08:43:02;;;;;;;9.75;5.13;;;23.40;99.90;;;-141.84;42.16;20980.59;5448815;26;20254;-61
2024/04/09 08:45:38;;;;;;;8.05;4.80;;;23.50;99.90;;;-141.84;42.16;21011.09;5448843;26;20257;-59
2024/04/09 08:48:12;;;;;;;15.63;5.18;;;23.50;99.90;;;-141.84;41.60;20990.75;5448179;26;20326;-60
2024/04/09 08:50:49;;;;;;;19.85;4.72;;;23.60;99.90;;;-141.84;41.89;20970.41;5448420;26;20257;-59
2024/04/09 08:53:23;;;;;;;12.20;5.10;;;23.50;99.90;;;-141.84;42.14;20996.84;5448525;26;20689;-60
2024/04/09 08:55:56;;;;;;;10.82;5.20;;;23.40;99.90;;;-141.84;41.68;21011.09;5437887;26;20242;-62
2024/04/09 08:58:27;;;;;;;15.00;5.20;;;23.60;99.90;;;-141.84;41.62;21037.50;5452750;26;20249;-59
2024/04/09 09:00:58;;;;;;;11.13;4.80;;;23.60;99.90;;;-141.84;42.22;21021.25;5449105;26;20660;-61
2024/04/09 09:03:28;;;;;;;10.07;5.00;;;23.60;99.90;;;-141.84;41.88;21025.31;5448294;26;20258;-60
2024/04/09 09:06:00;;;;;;;11.05;5.28;;;23.60;99.90;;;-141.84;41.18;21072.06;5447748;26;20254;-60
2024/04/09 09:08:42;;;;;;;16.33;5.15;;;23.80;99.90;;;-141.84;41.33;21047.69;5448102;26;20305;-59
2024/04/09 09:11:10;;;;;;;12.90;5.30;;;23.80;99.90;;;-141.84;41.72;21080.19;5436471;26;20262;-59
2024/04/09 09:13:40;;;;;;;10.73;5.38;;;23.80;99.90;;;-141.84;41.58;21104.59;5421857;26;20276;-60
2024/04/09 09:16:11;;;;;;;12.27;5.50;;;23.90;99.90;;;-141.84;41.44;21094.44;5447940;26;20288;-60
2024/04/09 09:18:45;;;;;;;14.27;5.45;;;23.90;99.90;;;-141.84;41.34;21108.66;5447616;26;20791;-59
2024/04/09 09:21:14;;;;;;;12.50;5.30;;;23.90;99.90;;;-141.84;41.72;21104.59;5376668;26;20289;-59
2024/04/09 09:23:45;;;;;;;16.88;5.28;;;24.00;99.90;;;-141.84;41.37;21092.41;5376615;26;20308;-59
2024/04/09 09:26:22;;;;;;;16.30;5.40;;;24.00;99.90;;;-141.84;41.91;21078.16;5376469;26;20235;-58
2024/04/09 09:29:03;;;;;;;15.43;5.65;;;23.90;99.90;;;-141.84;41.84;21114.75;5377998;26;20731;-60
2024/04/09 09:31:39;;;;;;;13.80;5.55;;;23.90;99.90;;;-141.84;41.43;21092.41;5363144;26;20714;-58
2024/04/09 09:34:12;;;;;;;11.40;5.68;;;24.00;99.90;;;-141.84;41.91;21086.31;5378145;26;20360;-60
2024/04/09 09:36:42;;;;;;;14.00;6.00;;;23.90;99.90;;;-141.84;41.56;21110.69;5378553;26;20775;-59
2024/04/09 09:39:16;;;;;;;16.58;5.90;;;24.00;99.90;;;-141.84;41.58;21143.22;5379327;26;20633;-58
2024/04/09 09:41:45;;;;;;;13.60;5.30;;;24.20;99.90;;;-141.84;41.14;21204.22;5378324;26;20302;-59
2024/04/09 09:44:19;;;;;;;13.68;5.63;;;24.30;99.90;;;-141.84;41.31;21238.78;5377474;26;20267;-60
2024/04/09 09:46:51;;;;;;;11.40;5.47;;;24.40;99.90;;;-141.84;41.16;21190.00;5379150;26;20759;-59
2024/04/09 09:49:23;;;;;;;21.02;5.65;;;24.60;99.90;;;-141.84;41.06;21265.22;5377161;26;20848;-60
2024/04/09 09:51:53;;;;;;;15.48;5.40;;;24.60;99.90;;;-141.84;40.81;21263.19;5377406;26;20280;-60
2024/04/09 09:54:28;;;;;;;18.50;5.57;;;24.70;99.90;;;-141.84;40.50;21314.00;5380928;26;20338;-59
2024/04/09 09:57:04;;;;;;;16.30;5.28;;;24.80;99.90;;;-141.84;39.71;21391.28;5381625;26;20633;-59
2024/04/09 09:59:42;;;;;;;18.23;5.40;;;25.00;99.90;;;-141.84;38.00;21472.59;5379924;26;20592;-60
2024/04/09 10:02:14;;;;;;;21.15;5.03;;;25.30;99.90;;;-141.84;36.94;21499.03;5364219;26;20228;-59
2024/04/09 10:04:46;;;;;;;17.73;4.82;;;25.30;99.90;;;-141.84;35.98;21600.69;5376840;26;20279;-59
2024/04/09 10:07:17;;;;;;;21.48;5.50;;;25.60;99.90;;;-141.84;36.46;21549.84;5376121;26;20267;-59
2024/04/09 10:09:52;;;;;;;16.50;5.43;;;25.50;99.90;;;-141.84;35.98;21553.94;5376320;26;20268;-58
2024/04/09 10:12:23;;;;;;;20.65;5.38;;;25.50;99.90;;;-141.84;35.41;21661.69;5366014;26;20266;-59
2024/04/09 10:15:01;;;;;;;21.17;5.13;;;25.70;99.90;;;-141.84;35.60;21653.56;5377128;26;20294;-60
2024/04/09 10:17:46;;;;;;;18.30;5.15;;;25.80;99.90;;;-141.84;36.01;21671.84;5375820;26;20255;-59